sensor_id;sensor_type;location;lat;lon;timestamp;temperature;humidity
13744;DHT22;6943;52.368;9.966;2022-12-26T00:01:52;10.70;99.90
13744;DHT22;6943;52.368;9.966;2022-12-26T00:04:18;10.70;99.90
13744;DHT22;6943;52.368;9.966;2022-12-26T00:06:43;10.80;99.90
13744;DHT22;6943;52.368;9.966;2022-12-26T00:09:09;10.80;99.90
13744;DHT22;6943;52.368;9.966;2022-12-26T00:11:35;10.70;99.90
13744;DHT22;6943;52.368;9.966;2022-12-26T00:14:12;10.80;99.90
13744;DHT22;6943;52.368;9.966;2022-12-26T00:16:39;10.80;99.90
13744;DHT22;6943;52.368;9.966;2022-12-26T00:19:05;10.70;99.90
13744;DHT22;6943;52.368;9.966;2022-12-26T00:21:30;10.70;99.90
13744;DHT22;6943;52.368;9.966;2022-12-26T00:23:57;10.70;99.90
13744;DHT22;6943;52.368;9.966;2022-12-26T00:26:27;10.80;99.90
13744;DHT22;6943;52.368;9.966;2022-12-26T00:28:54;10.70;99.90
13744;DHT22;6943;52.368;9.966;2022-12-26T00:31:22;10.80;99.90
13744;DHT22;6943;52.368;9.966;2022-12-26T00:33:48;10.80;99.90
13744;DHT22;6943;52.368;9.966;2022-12-26T00:36:16;10.80;99.90
13744;DHT22;6943;52.368;9.966;2022-12-26T00:38:44;10.80;99.90
13744;DHT22;6943;52.368;9.966;2022-12-26T00:41:11;10.80;99.90
13744;DHT22;6943;52.368;9.966;2022-12-26T00:43:37;10.80;99.90
13744;DHT22;6943;52.368;9.966;2022-12-26T00:46:03;10.80;99.90
13744;DHT22;6943;52.368;9.966;2022-12-26T00:48:28;10.80;99.90
13744;DHT22;6943;52.368;9.966;2022-12-26T00:50:54;10.80;99.90
13744;DHT22;6943;52.368;9.966;2022-12-26T00:53:21;10.80;99.90
13744;DHT22;6943;52.368;9.966;2022-12-26T00:55:47;10.80;99.90
13744;DHT22;6943;52.368;9.966;2022-12-26T00:58:13;10.80;99.90
13744;DHT22;6943;52.368;9.966;2022-12-26T01:00:38;10.80;99.90
13744;DHT22;6943;52.368;9.966;2022-12-26T01:03:06;10.80;99.90
13744;DHT22;6943;52.368;9.966;2022-12-26T01:05:32;10.80;99.90
13744;DHT22;6943;52.368;9.966;2022-12-26T01:07:58;10.80;99.90
13744;DHT22;6943;52.368;9.966;2022-12-26T01:10:24;10.80;99.90
13744;DHT22;6943;52.368;9.966;2022-12-26T01:12:50;10.80;99.90
13744;DHT22;6943;52.368;9.966;2022-12-26T01:15:16;10.80;99.90
13744;DHT22;6943;52.368;9.966;2022-12-26T01:17:41;10.80;99.90
13744;DHT22;6943;52.368;9.966;2022-12-26T01:20:07;10.80;99.90
13744;DHT22;6943;52.368;9.966;2022-12-26T01:22:32;10.80;99.90
13744;DHT22;6943;52.368;9.966;2022-12-26T01:24:58;10.70;99.90
13744;DHT22;6943;52.368;9.966;2022-12-26T01:27:25;10.70;99.90
13744;DHT22;6943;52.368;9.966;2022-12-26T01:29:51;10.60;99.90
13744;DHT22;6943;52.368;9.966;2022-12-26T01:32:18;10.60;99.90
13744;DHT22;6943;52.368;9.966;2022-12-26T01:34:44;10.50;99.90
13744;DHT22;6943;52.368;9.966;2022-12-26T01:37:11;10.50;99.90
13744;DHT22;6943;52.368;9.966;2022-12-26T01:39:37;10.50;99.90
13744;DHT22;6943;52.368;9.966;2022-12-26T01:42:07;10.50;99.90
13744;DHT22;6943;52.368;9.966;2022-12-26T01:47:36;10.60;99.90
13744;DHT22;6943;52.368;9.966;2022-12-26T01:50:04;10.60;99.90
13744;DHT22;6943;52.368;9.966;2022-12-26T01:52:41;10.70;99.90
13744;DHT22;6943;52.368;9.966;2022-12-26T01:55:10;10.70;99.90
13744;DHT22;6943;52.368;9.966;2022-12-26T01:57:41;10.70;99.90
13744;DHT22;6943;52.368;9.966;2022-12-26T02:00:08;10.70;99.90
13744;DHT22;6943;52.368;9.966;2022-12-26T02:02:34;10.70;99.90
13744;DHT22;6943;52.368;9.966;2022-12-26T02:05:22;10.70;99.90
13744;DHT22;6943;52.368;9.966;2022-12-26T02:08:03;10.70;99.90
13744;DHT22;6943;52.368;9.966;2022-12-26T02:10:34;10.80;99.90
13744;DHT22;6943;52.368;9.966;2022-12-26T02:13:00;10.80;99.90
13744;DHT22;6943;52.368;9.966;2022-12-26T02:15:26;10.80;99.90
13744;DHT22;6943;52.368;9.966;2022-12-26T02:17:52;10.80;99.90
13744;DHT22;6943;52.368;9.966;2022-12-26T02:20:26;10.70;99.90
13744;DHT22;6943;52.368;9.966;2022-12-26T02:23:18;10.60;99.90
13744;DHT22;6943;52.368;9.966;2022-12-26T02:31:41;10.60;99.90
13744;DHT22;6943;52.368;9.966;2022-12-26T02:34:24;10.60;99.90
13744;DHT22;6943;52.368;9.966;2022-12-26T02:39:33;10.60;99.90
13744;DHT22;6943;52.368;9.966;2022-12-26T02:42:29;10.60;99.90
13744;DHT22;6943;52.368;9.966;2022-12-26T02:45:08;10.60;99.90
13744;DHT22;6943;52.368;9.966;2022-12-26T02:51:05;10.60;99.90
13744;DHT22;6943;52.368;9.966;2022-12-26T02:54:31;10.50;99.90
13744;DHT22;6943;52.368;9.966;2022-12-26T02:57:22;10.50;99.90
13744;DHT22;6943;52.368;9.966;2022-12-26T03:00:18;10.50;99.90
13744;DHT22;6943;52.368;9.966;2022-12-26T03:03:26;10.40;99.90
13744;DHT22;6943;52.368;9.966;2022-12-26T03:06:22;10.40;99.90
13744;DHT22;6943;52.368;9.966;2022-12-26T03:09:09;10.40;99.90
13744;DHT22;6943;52.368;9.966;2022-12-26T03:11:58;10.40;99.90
13744;DHT22;6943;52.368;9.966;2022-12-26T03:14:49;10.40;99.90
13744;DHT22;6943;52.368;9.966;2022-12-26T03:18:02;10.40;99.90
13744;DHT22;6943;52.368;9.966;2022-12-26T03:20:25;10.30;99.90
13744;DHT22;6943;52.368;9.966;2022-12-26T03:23:21;10.30;99.90
13744;DHT22;6943;52.368;9.966;2022-12-26T03:25:53;10.30;99.90
13744;DHT22;6943;52.368;9.966;2022-12-26T03:28:38;10.30;99.90
13744;DHT22;6943;52.368;9.966;2022-12-26T03:31:07;10.30;99.90
13744;DHT22;6943;52.368;9.966;2022-12-26T03:33:37;10.30;99.90
13744;DHT22;6943;52.368;9.966;2022-12-26T03:39:30;10.30;99.90
13744;DHT22;6943;52.368;9.966;2022-12-26T03:45:43;10.30;99.90
13744;DHT22;6943;52.368;9.966;2022-12-26T03:48:43;10.30;99.90
13744;DHT22;6943;52.368;9.966;2022-12-26T03:51:41;10.40;99.90
13744;DHT22;6943;52.368;9.966;2022-12-26T03:57:45;10.40;99.90
13744;DHT22;6943;52.368;9.966;2022-12-26T04:00:31;10.40;99.90
13744;DHT22;6943;52.368;9.966;2022-12-26T04:03:19;10.40;99.90
13744;DHT22;6943;52.368;9.966;2022-12-26T04:06:07;10.40;99.90
13744;DHT22;6943;52.368;9.966;2022-12-26T04:09:00;10.40;99.90
13744;DHT22;6943;52.368;9.966;2022-12-26T04:11:45;10.40;99.90
13744;DHT22;6943;52.368;9.966;2022-12-26T04:14:35;10.40;99.90
13744;DHT22;6943;52.368;9.966;2022-12-26T04:17:40;10.40;99.90
13744;DHT22;6943;52.368;9.966;2022-12-26T04:23:37;10.40;99.90
13744;DHT22;6943;52.368;9.966;2022-12-26T04:26:29;10.40;99.90
13744;DHT22;6943;52.368;9.966;2022-12-26T04:29:15;10.40;99.90
13744;DHT22;6943;52.368;9.966;2022-12-26T04:32:49;10.40;99.90
13744;DHT22;6943;52.368;9.966;2022-12-26T04:35:26;10.40;99.90
13744;DHT22;6943;52.368;9.966;2022-12-26T04:38:17;10.40;99.90
13744;DHT22;6943;52.368;9.966;2022-12-26T04:41:04;10.20;99.90
13744;DHT22;6943;52.368;9.966;2022-12-26T04:43:49;10.20;99.90
13744;DHT22;6943;52.368;9.966;2022-12-26T04:46:44;10.20;99.90
13744;DHT22;6943;52.368;9.966;2022-12-26T04:49:12;10.30;99.90
13744;DHT22;6943;52.368;9.966;2022-12-26T04:51:58;10.30;99.90
13744;DHT22;6943;52.368;9.966;2022-12-26T04:54:25;10.40;99.90
13744;DHT22;6943;52.368;9.966;2022-12-26T04:56:51;10.40;99.90
13744;DHT22;6943;52.368;9.966;2022-12-26T04:59:17;10.40;99.90
13744;DHT22;6943;52.368;9.966;2022-12-26T05:01:43;10.40;99.90
13744;DHT22;6943;52.368;9.966;2022-12-26T05:04:44;10.30;99.90
13744;DHT22;6943;52.368;9.966;2022-12-26T05:07:29;10.30;99.90
13744;DHT22;6943;52.368;9.966;2022-12-26T05:10:23;10.30;99.90
13744;DHT22;6943;52.368;9.966;2022-12-26T05:12:49;10.30;99.90
13744;DHT22;6943;52.368;9.966;2022-12-26T05:15:15;10.30;99.90
13744;DHT22;6943;52.368;9.966;2022-12-26T05:17:41;10.30;99.90
13744;DHT22;6943;52.368;9.966;2022-12-26T05:20:25;10.30;99.90
13744;DHT22;6943;52.368;9.966;2022-12-26T05:23:21;10.20;99.90
13744;DHT22;6943;52.368;9.966;2022-12-26T05:26:19;10.20;99.90
13744;DHT22;6943;52.368;9.966;2022-12-26T05:29:22;10.20;99.90
13744;DHT22;6943;52.368;9.966;2022-12-26T05:31:49;10.20;99.90
13744;DHT22;6943;52.368;9.966;2022-12-26T05:34:14;10.20;99.90
13744;DHT22;6943;52.368;9.966;2022-12-26T05:36:47;10.20;99.90
13744;DHT22;6943;52.368;9.966;2022-12-26T05:39:13;10.20;99.90
13744;DHT22;6943;52.368;9.966;2022-12-26T05:41:39;10.20;99.90
13744;DHT22;6943;52.368;9.966;2022-12-26T05:44:05;10.20;99.90
13744;DHT22;6943;52.368;9.966;2022-12-26T05:46:32;10.20;99.90
13744;DHT22;6943;52.368;9.966;2022-12-26T05:48:57;10.30;99.90
13744;DHT22;6943;52.368;9.966;2022-12-26T05:51:23;10.30;99.90
13744;DHT22;6943;52.368;9.966;2022-12-26T05:53:49;10.20;99.90
13744;DHT22;6943;52.368;9.966;2022-12-26T05:56:16;10.20;99.90
13744;DHT22;6943;52.368;9.966;2022-12-26T05:58:41;10.20;99.90
13744;DHT22;6943;52.368;9.966;2022-12-26T06:01:19;10.10;99.90
13744;DHT22;6943;52.368;9.966;2022-12-26T06:03:50;10.10;99.90
13744;DHT22;6943;52.368;9.966;2022-12-26T06:06:17;10.10;99.90
13744;DHT22;6943;52.368;9.966;2022-12-26T06:08:43;10.10;99.90
13744;DHT22;6943;52.368;9.966;2022-12-26T06:11:11;10.10;99.90
13744;DHT22;6943;52.368;9.966;2022-12-26T06:13:37;10.00;99.90
13744;DHT22;6943;52.368;9.966;2022-12-26T06:16:08;10.00;99.90
13744;DHT22;6943;52.368;9.966;2022-12-26T06:18:34;10.00;99.90
13744;DHT22;6943;52.368;9.966;2022-12-26T06:21:07;10.00;99.90
13744;DHT22;6943;52.368;9.966;2022-12-26T06:23:34;10.00;99.90
13744;DHT22;6943;52.368;9.966;2022-12-26T06:26:00;9.90;99.90
13744;DHT22;6943;52.368;9.966;2022-12-26T06:28:26;9.90;99.90
13744;DHT22;6943;52.368;9.966;2022-12-26T06:30:52;9.90;99.90
13744;DHT22;6943;52.368;9.966;2022-12-26T06:33:18;9.90;99.90
13744;DHT22;6943;52.368;9.966;2022-12-26T06:35:44;9.90;99.90
13744;DHT22;6943;52.368;9.966;2022-12-26T06:38:09;9.90;99.90
13744;DHT22;6943;52.368;9.966;2022-12-26T06:40:39;9.70;99.90
13744;DHT22;6943;52.368;9.966;2022-12-26T06:43:05;9.60;99.90
13744;DHT22;6943;52.368;9.966;2022-12-26T06:45:31;9.50;99.90
13744;DHT22;6943;52.368;9.966;2022-12-26T06:47:57;9.60;99.90
13744;DHT22;6943;52.368;9.966;2022-12-26T06:50:24;9.60;99.90
13744;DHT22;6943;52.368;9.966;2022-12-26T06:52:49;9.50;99.90
13744;DHT22;6943;52.368;9.966;2022-12-26T06:55:15;9.50;99.90
13744;DHT22;6943;52.368;9.966;2022-12-26T06:57:40;9.50;99.90
13744;DHT22;6943;52.368;9.966;2022-12-26T07:00:06;9.50;99.90
13744;DHT22;6943;52.368;9.966;2022-12-26T07:02:33;9.50;99.90
13744;DHT22;6943;52.368;9.966;2022-12-26T07:04:58;9.50;99.90
13744;DHT22;6943;52.368;9.966;2022-12-26T07:07:24;9.40;99.90
13744;DHT22;6943;52.368;9.966;2022-12-26T07:09:49;9.40;99.90
13744;DHT22;6943;52.368;9.966;2022-12-26T07:12:15;9.40;99.90
13744;DHT22;6943;52.368;9.966;2022-12-26T07:14:40;9.40;99.90
13744;DHT22;6943;52.368;9.966;2022-12-26T07:17:06;9.30;99.90
13744;DHT22;6943;52.368;9.966;2022-12-26T07:19:33;9.20;99.90
13744;DHT22;6943;52.368;9.966;2022-12-26T07:21:58;9.20;99.90
13744;DHT22;6943;52.368;9.966;2022-12-26T07:24:23;9.20;99.90
13744;DHT22;6943;52.368;9.966;2022-12-26T07:26:49;9.10;99.90
13744;DHT22;6943;52.368;9.966;2022-12-26T07:29:15;9.10;99.90
13744;DHT22;6943;52.368;9.966;2022-12-26T07:31:41;9.00;99.90
13744;DHT22;6943;52.368;9.966;2022-12-26T07:34:06;9.10;99.90
13744;DHT22;6943;52.368;9.966;2022-12-26T07:36:32;9.00;99.90
13744;DHT22;6943;52.368;9.966;2022-12-26T07:38:58;9.00;99.90
13744;DHT22;6943;52.368;9.966;2022-12-26T07:41:23;9.00;99.90
13744;DHT22;6943;52.368;9.966;2022-12-26T07:44:09;9.00;99.90
13744;DHT22;6943;52.368;9.966;2022-12-26T07:46:34;9.00;99.90
13744;DHT22;6943;52.368;9.966;2022-12-26T07:49:00;9.00;99.90
13744;DHT22;6943;52.368;9.966;2022-12-26T07:51:26;9.10;99.90
13744;DHT22;6943;52.368;9.966;2022-12-26T07:53:51;9.10;99.90
13744;DHT22;6943;52.368;9.966;2022-12-26T07:56:17;9.10;99.90
13744;DHT22;6943;52.368;9.966;2022-12-26T07:58:42;9.20;99.90
13744;DHT22;6943;52.368;9.966;2022-12-26T08:01:08;9.20;99.90
13744;DHT22;6943;52.368;9.966;2022-12-26T08:03:34;9.20;99.90
13744;DHT22;6943;52.368;9.966;2022-12-26T08:06:00;9.20;99.90
13744;DHT22;6943;52.368;9.966;2022-12-26T08:08:25;9.20;99.90
13744;DHT22;6943;52.368;9.966;2022-12-26T08:11:00;9.20;99.90
13744;DHT22;6943;52.368;9.966;2022-12-26T08:13:27;9.20;99.90
13744;DHT22;6943;52.368;9.966;2022-12-26T08:15:53;9.20;99.90
13744;DHT22;6943;52.368;9.966;2022-12-26T08:18:19;9.30;99.90
13744;DHT22;6943;52.368;9.966;2022-12-26T08:20:44;9.30;99.90
13744;DHT22;6943;52.368;9.966;2022-12-26T08:23:10;9.30;99.90
13744;DHT22;6943;52.368;9.966;2022-12-26T08:25:35;9.30;99.90
13744;DHT22;6943;52.368;9.966;2022-12-26T08:28:01;9.40;99.90
13744;DHT22;6943;52.368;9.966;2022-12-26T08:30:26;9.40;99.90
13744;DHT22;6943;52.368;9.966;2022-12-26T08:32:52;9.50;99.90
13744;DHT22;6943;52.368;9.966;2022-12-26T08:35:17;9.50;99.90
13744;DHT22;6943;52.368;9.966;2022-12-26T08:37:42;9.50;99.90
13744;DHT22;6943;52.368;9.966;2022-12-26T08:40:08;9.60;99.90
13744;DHT22;6943;52.368;9.966;2022-12-26T08:42:34;9.60;99.90
13744;DHT22;6943;52.368;9.966;2022-12-26T08:45:00;9.70;99.90
13744;DHT22;6943;52.368;9.966;2022-12-26T08:47:25;9.70;99.90
13744;DHT22;6943;52.368;9.966;2022-12-26T08:49:51;9.70;30.60
13744;DHT22;6943;52.368;9.966;2022-12-26T08:52:17;9.70;1.00
13744;DHT22;6943;52.368;9.966;2022-12-26T08:54:42;9.80;1.00
13744;DHT22;6943;52.368;9.966;2022-12-26T08:57:08;9.70;1.00
13744;DHT22;6943;52.368;9.966;2022-12-26T08:59:34;9.80;1.00
13744;DHT22;6943;52.368;9.966;2022-12-26T09:01:59;9.80;1.00
13744;DHT22;6943;52.368;9.966;2022-12-26T09:04:25;9.90;1.00
13744;DHT22;6943;52.368;9.966;2022-12-26T09:06:50;9.90;1.00
13744;DHT22;6943;52.368;9.966;2022-12-26T09:09:16;9.90;1.00
13744;DHT22;6943;52.368;9.966;2022-12-26T09:11:41;9.90;1.00
13744;DHT22;6943;52.368;9.966;2022-12-26T09:14:08;9.90;99.90
13744;DHT22;6943;52.368;9.966;2022-12-26T09:16:37;9.90;99.90
13744;DHT22;6943;52.368;9.966;2022-12-26T09:19:04;9.90;99.90
13744;DHT22;6943;52.368;9.966;2022-12-26T09:21:30;10.00;99.90
13744;DHT22;6943;52.368;9.966;2022-12-26T09:23:57;10.10;1.00
13744;DHT22;6943;52.368;9.966;2022-12-26T09:26:23;10.10;99.90
13744;DHT22;6943;52.368;9.966;2022-12-26T09:28:49;10.10;1.00
13744;DHT22;6943;52.368;9.966;2022-12-26T09:31:18;10.20;1.00
13744;DHT22;6943;52.368;9.966;2022-12-26T09:33:44;10.30;99.90
13744;DHT22;6943;52.368;9.966;2022-12-26T09:36:16;10.30;93.90
13744;DHT22;6943;52.368;9.966;2022-12-26T09:38:43;10.40;1.00
13744;DHT22;6943;52.368;9.966;2022-12-26T09:44:13;10.50;99.90
13744;DHT22;6943;52.368;9.966;2022-12-26T09:49:25;10.60;20.90
13744;DHT22;6943;52.368;9.966;2022-12-26T09:51:58;10.60;1.00
13744;DHT22;6943;52.368;9.966;2022-12-26T09:54:33;10.70;1.00
13744;DHT22;6943;52.368;9.966;2022-12-26T09:57:01;10.80;99.90
13744;DHT22;6943;52.368;9.966;2022-12-26T09:59:36;10.90;1.00
13744;DHT22;6943;52.368;9.966;2022-12-26T10:02:14;10.90;1.00
13744;DHT22;6943;52.368;9.966;2022-12-26T10:04:41;10.90;99.90
13744;DHT22;6943;52.368;9.966;2022-12-26T10:07:32;10.90;99.90
13744;DHT22;6943;52.368;9.966;2022-12-26T10:10:11;10.90;99.90
13744;DHT22;6943;52.368;9.966;2022-12-26T10:12:45;11.00;1.00
13744;DHT22;6943;52.368;9.966;2022-12-26T10:15:33;11.00;99.90
13744;DHT22;6943;52.368;9.966;2022-12-26T10:18:15;11.10;99.90
13744;DHT22;6943;52.368;9.966;2022-12-26T10:21:02;11.10;99.90
13744;DHT22;6943;52.368;9.966;2022-12-26T10:23:34;11.00;99.90
13744;DHT22;6943;52.368;9.966;2022-12-26T10:26:24;11.00;99.90
13744;DHT22;6943;52.368;9.966;2022-12-26T10:34:22;11.00;1.00
13744;DHT22;6943;52.368;9.966;2022-12-26T10:36:52;11.10;1.00
13744;DHT22;6943;52.368;9.966;2022-12-26T10:39:25;11.10;99.90
13744;DHT22;6943;52.368;9.966;2022-12-26T10:41:57;11.10;99.90
13744;DHT22;6943;52.368;9.966;2022-12-26T10:44:24;11.20;99.90
13744;DHT22;6943;52.368;9.966;2022-12-26T10:47:18;11.20;1.00
13744;DHT22;6943;52.368;9.966;2022-12-26T10:49:47;11.20;4.20
13744;DHT22;6943;52.368;9.966;2022-12-26T10:52:13;11.30;1.00
13744;DHT22;6943;52.368;9.966;2022-12-26T10:54:40;11.40;1.00
13744;DHT22;6943;52.368;9.966;2022-12-26T10:57:05;11.40;1.00
13744;DHT22;6943;52.368;9.966;2022-12-26T10:59:50;11.30;99.90
13744;DHT22;6943;52.368;9.966;2022-12-26T11:02:29;11.40;1.00
13744;DHT22;6943;52.368;9.966;2022-12-26T11:05:01;11.40;99.90
13744;DHT22;6943;52.368;9.966;2022-12-26T11:07:30;11.40;99.90
13744;DHT22;6943;52.368;9.966;2022-12-26T11:09:57;11.30;1.00
13744;DHT22;6943;52.368;9.966;2022-12-26T11:12:38;11.30;1.00
13744;DHT22;6943;52.368;9.966;2022-12-26T11:15:25;11.30;1.00
13744;DHT22;6943;52.368;9.966;2022-12-26T11:17:52;11.20;1.00
13744;DHT22;6943;52.368;9.966;2022-12-26T11:20:29;11.20;1.00
13744;DHT22;6943;52.368;9.966;2022-12-26T11:23:21;11.30;1.00
13744;DHT22;6943;52.368;9.966;2022-12-26T11:25:50;11.40;1.00
13744;DHT22;6943;52.368;9.966;2022-12-26T11:28:34;11.50;99.90
13744;DHT22;6943;52.368;9.966;2022-12-26T11:31:03;11.50;99.90
13744;DHT22;6943;52.368;9.966;2022-12-26T11:33:42;11.50;99.90
13744;DHT22;6943;52.368;9.966;2022-12-26T11:38:47;11.60;29.90
13744;DHT22;6943;52.368;9.966;2022-12-26T11:41:33;11.70;1.00
13744;DHT22;6943;52.368;9.966;2022-12-26T11:49:19;11.60;1.00
13744;DHT22;6943;52.368;9.966;2022-12-26T11:51:48;11.70;1.00
13744;DHT22;6943;52.368;9.966;2022-12-26T11:54:26;11.90;1.00
13744;DHT22;6943;52.368;9.966;2022-12-26T11:57:18;12.10;1.00
13744;DHT22;6943;52.368;9.966;2022-12-26T11:59:45;12.10;1.00
13744;DHT22;6943;52.368;9.966;2022-12-26T12:02:24;12.10;99.90
13744;DHT22;6943;52.368;9.966;2022-12-26T12:04:52;12.10;99.90
13744;DHT22;6943;52.368;9.966;2022-12-26T12:07:37;12.00;99.90
13744;DHT22;6943;52.368;9.966;2022-12-26T12:13:39;11.90;99.90
13744;DHT22;6943;52.368;9.966;2022-12-26T12:25:02;11.50;99.90
13744;DHT22;6943;52.368;9.966;2022-12-26T12:27:44;11.40;1.00
13744;DHT22;6943;52.368;9.966;2022-12-26T12:30:23;11.20;1.00
13744;DHT22;6943;52.368;9.966;2022-12-26T12:33:25;11.00;99.90
13744;DHT22;6943;52.368;9.966;2022-12-26T12:41:49;11.00;1.00
13744;DHT22;6943;52.368;9.966;2022-12-26T12:53:37;11.20;1.00
13744;DHT22;6943;52.368;9.966;2022-12-26T12:59:11;11.30;1.00
13744;DHT22;6943;52.368;9.966;2022-12-26T13:01:45;11.40;1.00
13744;DHT22;6943;52.368;9.966;2022-12-26T13:04:22;11.40;99.90
13744;DHT22;6943;52.368;9.966;2022-12-26T13:06:59;11.40;99.90
13744;DHT22;6943;52.368;9.966;2022-12-26T13:10:15;11.40;99.90
13744;DHT22;6943;52.368;9.966;2022-12-26T13:12:24;11.30;99.90
13744;DHT22;6943;52.368;9.966;2022-12-26T13:14:59;11.30;99.90
13744;DHT22;6943;52.368;9.966;2022-12-26T13:17:48;11.40;1.00
13744;DHT22;6943;52.368;9.966;2022-12-26T13:20:27;11.40;1.00
13744;DHT22;6943;52.368;9.966;2022-12-26T13:22:59;11.40;99.90
13744;DHT22;6943;52.368;9.966;2022-12-26T13:25:49;11.50;99.90
13744;DHT22;6943;52.368;9.966;2022-12-26T13:28:26;11.50;99.90
13744;DHT22;6943;52.368;9.966;2022-12-26T13:30:53;11.50;99.90
13744;DHT22;6943;52.368;9.966;2022-12-26T13:33:19;11.40;1.00
13744;DHT22;6943;52.368;9.966;2022-12-26T13:38:15;11.50;99.90
13744;DHT22;6943;52.368;9.966;2022-12-26T13:41:01;11.40;99.90
13744;DHT22;6943;52.368;9.966;2022-12-26T13:44:22;11.30;99.90
13744;DHT22;6943;52.368;9.966;2022-12-26T13:54:36;11.20;1.00
13744;DHT22;6943;52.368;9.966;2022-12-26T14:03:10;10.90;99.90
13744;DHT22;6943;52.368;9.966;2022-12-26T14:11:59;10.50;65.00
13744;DHT22;6943;52.368;9.966;2022-12-26T14:17:25;10.40;99.90
13744;DHT22;6943;52.368;9.966;2022-12-26T14:20:20;10.20;99.90
13744;DHT22;6943;52.368;9.966;2022-12-26T14:25:58;10.10;1.00
13744;DHT22;6943;52.368;9.966;2022-12-26T14:36:50;10.00;1.00
13744;DHT22;6943;52.368;9.966;2022-12-26T14:39:43;9.90;1.00
13744;DHT22;6943;52.368;9.966;2022-12-26T14:42:19;9.90;1.00
13744;DHT22;6943;52.368;9.966;2022-12-26T14:45:12;9.80;99.90
13744;DHT22;6943;52.368;9.966;2022-12-26T14:47:47;9.80;99.90
13744;DHT22;6943;52.368;9.966;2022-12-26T14:58:39;9.40;99.90
13744;DHT22;6943;52.368;9.966;2022-12-26T15:03:42;9.00;99.90
13744;DHT22;6943;52.368;9.966;2022-12-26T15:18:13;8.00;1.00
13744;DHT22;6943;52.368;9.966;2022-12-26T15:21:16;7.90;1.00
13744;DHT22;6943;52.368;9.966;2022-12-26T15:27:12;7.70;1.00
13744;DHT22;6943;52.368;9.966;2022-12-26T15:29:51;7.50;1.00
13744;DHT22;6943;52.368;9.966;2022-12-26T15:35:20;7.40;1.00
13744;DHT22;6943;52.368;9.966;2022-12-26T15:38:10;7.40;1.00
13744;DHT22;6943;52.368;9.966;2022-12-26T15:46:30;7.60;1.00
13744;DHT22;6943;52.368;9.966;2022-12-26T15:51:53;7.80;1.00
13744;DHT22;6943;52.368;9.966;2022-12-26T16:05:10;7.80;1.00
13744;DHT22;6943;52.368;9.966;2022-12-26T16:07:57;7.70;99.60
13744;DHT22;6943;52.368;9.966;2022-12-26T16:15:45;7.40;1.00
13744;DHT22;6943;52.368;9.966;2022-12-26T16:18:13;7.30;1.00
13744;DHT22;6943;52.368;9.966;2022-12-26T16:20:39;7.30;99.90
13744;DHT22;6943;52.368;9.966;2022-12-26T16:23:26;7.30;1.00
13744;DHT22;6943;52.368;9.966;2022-12-26T16:25:54;7.30;1.00
13744;DHT22;6943;52.368;9.966;2022-12-26T16:28:25;7.30;1.00
13744;DHT22;6943;52.368;9.966;2022-12-26T16:30:51;7.30;99.90
13744;DHT22;6943;52.368;9.966;2022-12-26T16:33:17;7.40;99.90
13744;DHT22;6943;52.368;9.966;2022-12-26T16:35:42;7.30;1.00
13744;DHT22;6943;52.368;9.966;2022-12-26T16:38:14;7.30;99.90
13744;DHT22;6943;52.368;9.966;2022-12-26T16:40:45;7.30;10.30
13744;DHT22;6943;52.368;9.966;2022-12-26T16:45:48;7.10;1.00
13744;DHT22;6943;52.368;9.966;2022-12-26T16:48:25;6.90;1.00
13744;DHT22;6943;52.368;9.966;2022-12-26T16:51:00;6.80;1.00
13744;DHT22;6943;52.368;9.966;2022-12-26T16:59:05;6.50;99.90
13744;DHT22;6943;52.368;9.966;2022-12-26T17:01:32;6.40;99.90
13744;DHT22;6943;52.368;9.966;2022-12-26T17:04:17;6.40;99.90
13744;DHT22;6943;52.368;9.966;2022-12-26T17:06:52;6.50;99.90
13744;DHT22;6943;52.368;9.966;2022-12-26T17:09:19;6.50;99.90
13744;DHT22;6943;52.368;9.966;2022-12-26T17:12:03;6.60;1.00
13744;DHT22;6943;52.368;9.966;2022-12-26T17:14:37;6.60;1.00
13744;DHT22;6943;52.368;9.966;2022-12-26T17:19:54;8.30;1.00
13744;DHT22;6943;52.368;9.966;2022-12-26T17:22:31;6.70;1.00
13744;DHT22;6943;52.368;9.966;2022-12-26T17:27:48;6.80;99.90
13744;DHT22;6943;52.368;9.966;2022-12-26T17:30:34;6.80;1.00
13744;DHT22;6943;52.368;9.966;2022-12-26T17:33:22;6.70;1.00
13744;DHT22;6943;52.368;9.966;2022-12-26T17:36:01;6.50;1.00
13744;DHT22;6943;52.368;9.966;2022-12-26T17:38:29;6.40;1.00
13744;DHT22;6943;52.368;9.966;2022-12-26T17:40:56;6.20;1.00
13744;DHT22;6943;52.368;9.966;2022-12-26T17:43:34;6.10;99.90
13744;DHT22;6943;52.368;9.966;2022-12-26T17:46:01;5.90;99.90
13744;DHT22;6943;52.368;9.966;2022-12-26T17:48:27;5.80;1.00
13744;DHT22;6943;52.368;9.966;2022-12-26T17:50:55;5.70;1.00
13744;DHT22;6943;52.368;9.966;2022-12-26T17:53:24;5.60;1.00
13744;DHT22;6943;52.368;9.966;2022-12-26T17:55:52;5.60;1.00
13744;DHT22;6943;52.368;9.966;2022-12-26T17:58:18;5.50;1.00
13744;DHT22;6943;52.368;9.966;2022-12-26T18:00:44;5.40;1.00
13744;DHT22;6943;52.368;9.966;2022-12-26T18:03:09;5.40;93.30
13744;DHT22;6943;52.368;9.966;2022-12-26T18:05:36;5.30;1.00
13744;DHT22;6943;52.368;9.966;2022-12-26T18:08:02;5.30;1.00
13744;DHT22;6943;52.368;9.966;2022-12-26T18:10:32;5.30;1.00
13744;DHT22;6943;52.368;9.966;2022-12-26T18:12:58;5.20;1.00
13744;DHT22;6943;52.368;9.966;2022-12-26T18:15:25;5.20;1.00
13744;DHT22;6943;52.368;9.966;2022-12-26T18:17:52;5.10;1.00
13744;DHT22;6943;52.368;9.966;2022-12-26T18:20:27;5.10;1.00
13744;DHT22;6943;52.368;9.966;2022-12-26T18:22:53;5.00;1.00
13744;DHT22;6943;52.368;9.966;2022-12-26T18:25:21;5.00;1.00
13744;DHT22;6943;52.368;9.966;2022-12-26T18:27:47;5.00;1.00
13744;DHT22;6943;52.368;9.966;2022-12-26T18:30:19;5.10;1.00
13744;DHT22;6943;52.368;9.966;2022-12-26T18:32:45;5.20;1.00
13744;DHT22;6943;52.368;9.966;2022-12-26T18:35:11;5.20;99.90
13744;DHT22;6943;52.368;9.966;2022-12-26T18:37:37;5.30;99.90
13744;DHT22;6943;52.368;9.966;2022-12-26T18:40:04;5.30;99.90
13744;DHT22;6943;52.368;9.966;2022-12-26T18:42:30;5.40;1.00
13744;DHT22;6943;52.368;9.966;2022-12-26T18:44:55;5.40;1.00
13744;DHT22;6943;52.368;9.966;2022-12-26T18:47:21;5.20;1.00
13744;DHT22;6943;52.368;9.966;2022-12-26T18:49:47;5.10;1.00
13744;DHT22;6943;52.368;9.966;2022-12-26T18:52:13;5.00;1.00
13744;DHT22;6943;52.368;9.966;2022-12-26T18:54:39;4.90;1.00
13744;DHT22;6943;52.368;9.966;2022-12-26T18:57:07;4.80;99.90
13744;DHT22;6943;52.368;9.966;2022-12-26T18:59:33;4.70;99.90
13744;DHT22;6943;52.368;9.966;2022-12-26T19:01:59;4.70;99.90
13744;DHT22;6943;52.368;9.966;2022-12-26T19:04:25;4.60;99.90
13744;DHT22;6943;52.368;9.966;2022-12-26T19:06:50;4.60;99.90
13744;DHT22;6943;52.368;9.966;2022-12-26T19:09:17;4.50;99.90
13744;DHT22;6943;52.368;9.966;2022-12-26T19:11:43;4.50;1.00
13744;DHT22;6943;52.368;9.966;2022-12-26T19:14:17;4.50;1.00
13744;DHT22;6943;52.368;9.966;2022-12-26T19:16:43;4.40;1.00
13744;DHT22;6943;52.368;9.966;2022-12-26T19:19:08;4.30;1.00
13744;DHT22;6943;52.368;9.966;2022-12-26T19:21:33;4.30;1.00
13744;DHT22;6943;52.368;9.966;2022-12-26T19:23:59;4.30;1.00
13744;DHT22;6943;52.368;9.966;2022-12-26T19:26:24;4.30;1.00
13744;DHT22;6943;52.368;9.966;2022-12-26T19:28:51;4.30;1.00
13744;DHT22;6943;52.368;9.966;2022-12-26T19:31:17;4.30;1.00
13744;DHT22;6943;52.368;9.966;2022-12-26T19:33:43;4.30;1.00
13744;DHT22;6943;52.368;9.966;2022-12-26T19:36:09;4.30;1.00